Port Charlotte, FL (33953)

12:49 PM EDT on September 16, 2014 (GMT -0400)
Riverwood | Change Station
CLOSE
Current Station
Personal Weather Station
Location: Port Charlotte, FL
Elevation: 13 ft
Nearby Weather Stations

Elev 13 ft 26.99 °N, 82.23 °W | Updated 8 minutes ago

Clear
Clear
90.2 °F
Feels Like 99 °F
N
0.0
Wind Variable Wind from North
Gusts 6.0 mph

Today
High -- | Low -- °F
--% Chance of Precip.
Yesterday
High -- | Low -- °F
Precip. -- in
7:14 AM 7:32 PM
Last Quarter, 44% visible
Pressure 30.09 in
Visibility 10.0 miles
Clouds Clear
Heat Index 99 °F
Dew Point 73 °F
Humidity 58%
Rainfall 0.00 in
Snow Depth Not available.
UV 11 out of 12
Pollen 6.70 out of 12
Air Quality Not available.
Flu Activity Not available.
METAR KPGD 161553Z VRB04KT 10SM CLR 32/22 A3009 RMK AO2 SLP188 T03220222

More Conditions Fewer Conditions

Pressure 30.09 in
Visibility 10.0 miles
Clouds Clear
Heat Index 99 °F
Dew Point 73 °F
Humidity 58%
Rainfall 0.00 in
Snow Depth Not available.
UV 11 out of 12
Pollen 6.70 out of 12
Air Quality Not available.
Flu Activity Not available.
METAR KPGD 161553Z VRB04KT 10SM CLR 32/22 A3009 RMK AO2 SLP188 T03220222

More Conditions Fewer Conditions

10-Day Weather Forecast

Almanac

Astronomy

Sep. 16, 2014 Rise Set
Actual Time 7:14 AM EDT 7:32 PM EDT
Civil Twilight 6:51 AM EDT 7:55 PM EDT
Nautical Twilight 6:24 AM EDT 8:22 PM EDT
Astronomical Twilight 5:56 AM EDT 8:49 PM EDT
Moon 12:46 AM EDT 2:31 PM EDT
Length of Visible Light 13h 03m
Length of Day
12h 17m
Tomorrow will be 1m 35s shorter.
Last Quarter, 44% of the Moon is Illuminated
Today
Last Quarter
Sep 24
New
Oct 1
First Quarter
Oct 8
Full
Oct 15
Last Quarter

Today's Extremes

State Highs State Lows

Community

WunderPhotos

Upload Photos

1,753,830 photos uploaded!

Nearby

Snow Depth

Station Depth Elevation
No new snow has been reported.

Earthquake Activity

City Distance Mag. Time & Date
No recent earthquake activity has been reported nearby.
Minimum magnitude displayed is 2.5.

Coastal Water Temperatures

Place Temperature
No Stations Reporting

Nearby Weather Stations